Pearson, Georgia
Current Conditions -  °F | °C
As of 6:15 PM on Wednesday 22 Oct 2014 (Local Time) from KDQH Reporting Station
Clear Clear  
Wind Chill: 72°   Ceiling: Unl
Heat Index: 72°   Visibility: 10mi
Dew Point: 45°   Wind: 6mph
Humidity: 38%   Direction: 20°NNE
Pressure: 30.04"   Gusts: NA
Location:  31.3°N, 82.85°W
Report Text: KDQH 222215Z AUTO 02005KT 10SM CLR 22/07 A3004 RMK AO2
Loading
Personal Weather Stations






























Interactive Weather Map
Tropical Storm Tracking
New forecast layout! Learn more

10-Day Weather Forecast

Advertisements
Track Severe Weather on mobile